PWSweather.com
Personal Weather Stations
Station Observations
ERMELO
Centre, ErmeloNL

CentreErmeloNL

Lat: 52.2986655, Lon: 5.6296194

Elevation: 41

Station Type: Oregon WMR200

www.meteoermelo.nl

High Low Average
Temperature 36.1°F2.3°C 24.6°F-4.1°C 29.3°F-1.5°C
Dew Point 24.7°F-4.1°C 12.7°F-10.7°C 18.2°F-7.7°C
Winds 6.3 mph 10.1 kmh 0.1 mph 0.2 kmh 4.0 mph SE6.4 kmh SE
Wind Gusts 12.1 mph19.5 kmh 1.6 mph2.6 kmh 7.0 mph11.3 kmh
Humidity 87% 40% 65%
Pressure 30.09 in1019.0 mb 29.92 in1013.2 mb -
Precipitation 0.00 in0.0 mm - -
Hour Temp Dew Point Humidity Winds Wind Gusts Pressure Precip Precip Rate Daily Precip Total
12:00 AM 28.8°F-1.8°C 22.8°F-5.1°C 78% 3.1 mph S5.0 kmh S 7.6 mph12.2 kmh 30.09 in1019.0 mb 0.00 in0.0 mm 0.00 in0.0 mm 0.00 in0.0 mm
12:15 AM 28.6°F-1.9°C 22.6°F-5.2°C 78% 2.5 mph S4.0 kmh S 5.4 mph8.7 kmh 30.09 in1019.0 mb 0.00 in0.0 mm 0.00 in0.0 mm 0.00 in0.0 mm
12:30 AM 28.4°F-2.0°C 22.7°F-5.2°C 79% 2.4 mph SSE3.9 kmh SSE 6.0 mph9.7 kmh 30.09 in1019.0 mb 0.00 in0.0 mm 0.00 in0.0 mm 0.00 in0.0 mm
12:45 AM 28.4°F-2.0°C 23.6°F-4.7°C 82% 3.0 mph SSE4.8 kmh SSE 4.7 mph7.6 kmh 30.09 in1019.0 mb 0.00 in0.0 mm 0.00 in0.0 mm 0.00 in0.0 mm
01:00 AM 28.2°F-2.1°C 24.0°F-4.4°C 84% 3.1 mph SSE5.0 kmh SSE 5.4 mph8.7 kmh 30.09 in1019.0 mb 0.00 in0.0 mm 0.00 in0.0 mm 0.00 in0.0 mm
01:15 AM 28.2°F-2.1°C 24.0°F-4.4°C 84% 2.5 mph SSE4.0 kmh SSE 4.9 mph7.9 kmh 30.09 in1019.0 mb 0.00 in0.0 mm 0.00 in0.0 mm 0.00 in0.0 mm
01:30 AM 28.2°F-2.1°C 24.6°F-4.1°C 86% 3.1 mph SSE5.0 kmh SSE 6.5 mph10.5 kmh 30.07 in1018.3 mb 0.00 in0.0 mm 0.00 in0.0 mm 0.00 in0.0 mm
01:45 AM 28.0°F-2.2°C 24.4°F-4.2°C 86% 3.6 mph SSE5.8 kmh SSE 6.3 mph10.1 kmh 30.09 in1019.0 mb 0.00 in0.0 mm 0.00 in0.0 mm 0.00 in0.0 mm
02:00 AM 27.9°F-2.3°C 23.9°F-4.5°C 85% 3.6 mph SSE5.8 kmh SSE 6.0 mph9.7 kmh 30.07 in1018.3 mb 0.00 in0.0 mm 0.00 in0.0 mm 0.00 in0.0 mm
02:15 AM 27.7°F-2.4°C 23.2°F-4.9°C 83% 3.1 mph S5.0 kmh S 6.3 mph10.1 kmh 30.07 in1018.3 mb 0.00 in0.0 mm 0.00 in0.0 mm 0.00 in0.0 mm
02:30 AM 27.5°F-2.5°C 22.4°F-5.3°C 81% 3.3 mph SSE5.3 kmh SSE 7.2 mph11.6 kmh 30.07 in1018.3 mb 0.00 in0.0 mm 0.00 in0.0 mm 0.00 in0.0 mm
02:45 AM 27.5°F-2.5°C 22.1°F-5.5°C 80% 3.5 mph SSE5.6 kmh SSE 6.3 mph10.1 kmh 30.07 in1018.3 mb 0.00 in0.0 mm 0.00 in0.0 mm 0.00 in0.0 mm
03:00 AM 27.3°F-2.6°C 22.0°F-5.6°C 80% 2.4 mph SSE3.9 kmh SSE 4.9 mph7.9 kmh 30.07 in1018.3 mb 0.00 in0.0 mm 0.00 in0.0 mm 0.00 in0.0 mm
03:15 AM 27.1°F-2.7°C 21.8°F-5.7°C 80% 2.1 mph SSE3.4 kmh SSE 4.3 mph6.9 kmh 30.07 in1018.3 mb 0.00 in0.0 mm 0.00 in0.0 mm 0.00 in0.0 mm
03:30 AM 27.1°F-2.7°C 21.8°F-5.7°C 80% 1.7 mph SSE2.7 kmh SSE 3.8 mph6.1 kmh 30.07 in1018.3 mb 0.00 in0.0 mm 0.00 in0.0 mm 0.00 in0.0 mm
03:45 AM 27.0°F-2.8°C 21.6°F-5.8°C 80% 2.1 mph SSE3.4 kmh SSE 4.7 mph7.6 kmh 30.07 in1018.3 mb 0.00 in0.0 mm 0.00 in0.0 mm 0.00 in0.0 mm
04:00 AM 26.8°F-2.9°C 21.7°F-5.7°C 81% 2.0 mph SSE3.2 kmh SSE 4.3 mph6.9 kmh 30.07 in1018.3 mb 0.00 in0.0 mm 0.00 in0.0 mm 0.00 in0.0 mm
04:15 AM 26.6°F-3.0°C 21.6°F-5.8°C 81% 2.3 mph SSE3.7 kmh SSE 6.0 mph9.7 kmh 30.07 in1018.3 mb 0.00 in0.0 mm 0.00 in0.0 mm 0.00 in0.0 mm
04:30 AM 26.4°F-3.1°C 21.4°F-5.9°C 81% 1.8 mph S2.9 kmh S 4.0 mph6.4 kmh 30.07 in1018.3 mb 0.00 in0.0 mm 0.00 in0.0 mm 0.00 in0.0 mm
04:45 AM 26.2°F-3.2°C 21.2°F-6.0°C 81% 1.5 mph SSE2.4 kmh SSE 2.9 mph4.7 kmh 30.07 in1018.3 mb 0.00 in0.0 mm 0.00 in0.0 mm 0.00 in0.0 mm
05:00 AM 26.2°F-3.2°C 21.2°F-6.0°C 81% 1.5 mph SE2.4 kmh SE 2.9 mph4.7 kmh 30.07 in1018.3 mb 0.00 in0.0 mm 0.00 in0.0 mm 0.00 in0.0 mm
05:15 AM 26.1°F-3.3°C 21.0°F-6.1°C 81% 1.1 mph SSE1.8 kmh SSE 3.4 mph5.5 kmh 30.07 in1018.3 mb 0.00 in0.0 mm 0.00 in0.0 mm 0.00 in0.0 mm
05:30 AM 25.9°F-3.4°C 20.9°F-6.2°C 81% 1.4 mph SE2.3 kmh SE 2.9 mph4.7 kmh 30.07 in1018.3 mb 0.00 in0.0 mm 0.00 in0.0 mm 0.00 in0.0 mm
05:45 AM 25.5°F-3.6°C 20.5°F-6.4°C 81% 1.3 mph SE2.1 kmh SE 3.8 mph6.1 kmh 30.07 in1018.3 mb 0.00 in0.0 mm 0.00 in0.0 mm 0.00 in0.0 mm
06:00 AM 25.2°F-3.8°C 20.1°F-6.6°C 81% 0.1 mph ESE0.2 kmh ESE 1.6 mph2.6 kmh 30.07 in1018.3 mb 0.00 in0.0 mm 0.00 in0.0 mm 0.00 in0.0 mm
06:15 AM 24.8°F-4.0°C 20.1°F-6.6°C 82% 0.6 mph ENE1.0 kmh ENE 2.5 mph4.0 kmh 30.07 in1018.3 mb 0.00 in0.0 mm 0.00 in0.0 mm 0.00 in0.0 mm
06:30 AM 24.6°F-4.1°C 19.9°F-6.7°C 82% 1.7 mph E2.7 kmh E 3.6 mph5.8 kmh 30.07 in1018.3 mb 0.00 in0.0 mm 0.00 in0.0 mm 0.00 in0.0 mm
06:45 AM 24.6°F-4.1°C 19.9°F-6.7°C 82% 1.3 mph ENE2.1 kmh ENE 2.7 mph4.3 kmh 30.07 in1018.3 mb 0.00 in0.0 mm 0.00 in0.0 mm 0.00 in0.0 mm
07:00 AM 24.6°F-4.1°C 20.2°F-6.6°C 83% 1.3 mph E2.1 kmh E 2.9 mph4.7 kmh 30.04 in1017.3 mb 0.00 in0.0 mm 0.00 in0.0 mm 0.00 in0.0 mm
07:15 AM 24.6°F-4.1°C 20.2°F-6.6°C 83% 2.2 mph SE3.5 kmh SE 3.8 mph6.1 kmh 30.07 in1018.3 mb 0.00 in0.0 mm 0.00 in0.0 mm 0.00 in0.0 mm
07:30 AM 25.5°F-3.6°C 21.4°F-5.9°C 84% 3.6 mph SE5.8 kmh SE 7.4 mph11.9 kmh 30.04 in1017.3 mb 0.00 in0.0 mm 0.00 in0.0 mm 0.00 in0.0 mm
07:45 AM 26.2°F-3.2°C 22.1°F-5.5°C 84% 4.1 mph SE6.6 kmh SE 6.7 mph10.8 kmh 30.07 in1018.3 mb 0.00 in0.0 mm 0.00 in0.0 mm 0.00 in0.0 mm
08:00 AM 26.6°F-3.0°C 22.7°F-5.2°C 85% 3.9 mph SE6.3 kmh SE 8.1 mph13.0 kmh 30.07 in1018.3 mb 0.00 in0.0 mm 0.00 in0.0 mm 0.00 in0.0 mm
08:15 AM 26.8°F-2.9°C 22.9°F-5.1°C 85% 4.4 mph SE7.1 kmh SE 7.4 mph11.9 kmh 30.04 in1017.3 mb 0.00 in0.0 mm 0.00 in0.0 mm 0.00 in0.0 mm
08:30 AM 27.0°F-2.8°C 23.1°F-4.9°C 85% 4.4 mph SE7.1 kmh SE 6.7 mph10.8 kmh 30.07 in1018.3 mb 0.00 in0.0 mm 0.00 in0.0 mm 0.00 in0.0 mm
08:45 AM 27.1°F-2.7°C 23.5°F-4.7°C 86% 4.8 mph SE7.7 kmh SE 7.8 mph12.6 kmh 30.07 in1018.3 mb 0.00 in0.0 mm 0.00 in0.0 mm 0.00 in0.0 mm
09:00 AM 27.7°F-2.4°C 24.3°F-4.3°C 87% 5.8 mph SE9.3 kmh SE 11.0 mph17.7 kmh 30.07 in1018.3 mb 0.00 in0.0 mm 0.00 in0.0 mm 0.00 in0.0 mm
09:15 AM 28.0°F-2.2°C 24.7°F-4.1°C 87% 5.3 mph SE8.5 kmh SE 8.5 mph13.7 kmh 30.04 in1017.3 mb 0.00 in0.0 mm 0.00 in0.0 mm 0.00 in0.0 mm
09:30 AM 28.4°F-2.0°C 24.7°F-4.1°C 86% 5.6 mph SE9.0 kmh SE 8.7 mph14.0 kmh 30.07 in1018.3 mb 0.00 in0.0 mm 0.00 in0.0 mm 0.00 in0.0 mm
09:45 AM 28.6°F-1.9°C 24.4°F-4.2°C 84% 5.0 mph SE8.0 kmh SE 7.8 mph12.6 kmh 30.07 in1018.3 mb 0.00 in0.0 mm 0.00 in0.0 mm 0.00 in0.0 mm
10:00 AM 28.8°F-1.8°C 24.0°F-4.4°C 82% 4.5 mph SE7.2 kmh SE 7.8 mph12.6 kmh 30.07 in1018.3 mb 0.00 in0.0 mm 0.00 in0.0 mm 0.00 in0.0 mm
10:15 AM 29.1°F-1.6°C 23.4°F-4.8°C 79% 6.2 mph SE10.0 kmh SE 10.5 mph16.9 kmh 30.07 in1018.3 mb 0.00 in0.0 mm 0.00 in0.0 mm 0.00 in0.0 mm
10:30 AM 30.2°F-1.0°C 23.5°F-4.7°C 76% 5.4 mph SE8.7 kmh SE 10.3 mph16.6 kmh 30.07 in1018.3 mb 0.00 in0.0 mm 0.00 in0.0 mm 0.00 in0.0 mm
10:45 AM 31.5°F-0.3°C 22.1°F-5.5°C 68% 6.2 mph SE10.0 kmh SE 10.3 mph16.6 kmh 30.04 in1017.3 mb 0.00 in0.0 mm 0.00 in0.0 mm 0.00 in0.0 mm
11:00 AM 31.8°F-0.1°C 21.0°F-6.1°C 64% 5.9 mph SE9.5 kmh SE 10.3 mph16.6 kmh 30.07 in1018.3 mb 0.00 in0.0 mm 0.00 in0.0 mm 0.00 in0.0 mm
11:15 AM 32.4°F0.2°C 20.0°F-6.7°C 60% 5.6 mph SE9.0 kmh SE 8.9 mph14.3 kmh 30.07 in1018.3 mb 0.00 in0.0 mm 0.00 in0.0 mm 0.00 in0.0 mm
11:30 AM 32.9°F0.5°C 19.7°F-6.8°C 58% 4.9 mph SE7.9 kmh SE 8.7 mph14.0 kmh 30.04 in1017.3 mb 0.00 in0.0 mm 0.00 in0.0 mm 0.00 in0.0 mm
11:45 AM 33.8°F1.0°C 18.9°F-7.3°C 54% 4.8 mph SE7.7 kmh SE 7.8 mph12.6 kmh 30.04 in1017.3 mb 0.00 in0.0 mm 0.00 in0.0 mm 0.00 in0.0 mm
12:00 PM 34.7°F1.5°C 18.9°F-7.3°C 52% 5.3 mph SE8.5 kmh SE 10.7 mph17.2 kmh 30.04 in1017.3 mb 0.00 in0.0 mm 0.00 in0.0 mm 0.00 in0.0 mm
12:15 PM 35.1°F1.7°C 18.3°F-7.6°C 50% 4.3 mph SE6.9 kmh SE 8.5 mph13.7 kmh 30.04 in1017.3 mb 0.00 in0.0 mm 0.00 in0.0 mm 0.00 in0.0 mm
12:30 PM 36.0°F2.2°C 17.7°F-7.9°C 47% 6.3 mph SE10.1 kmh SE 9.6 mph15.4 kmh 30.04 in1017.3 mb 0.00 in0.0 mm 0.00 in0.0 mm 0.00 in0.0 mm
12:45 PM 36.1°F2.3°C 15.2°F-9.3°C 42% 6.0 mph SE9.7 kmh SE 10.7 mph17.2 kmh 30.01 in1016.3 mb 0.00 in0.0 mm 0.00 in0.0 mm 0.00 in0.0 mm
01:00 PM 35.8°F2.1°C 14.9°F-9.5°C 42% 5.9 mph SE9.5 kmh SE 12.1 mph19.5 kmh 30.01 in1016.3 mb 0.00 in0.0 mm 0.00 in0.0 mm 0.00 in0.0 mm
01:15 PM 35.6°F2.0°C 14.2°F-9.9°C 41% 5.6 mph SE9.0 kmh SE 10.3 mph16.6 kmh 29.98 in1015.2 mb 0.00 in0.0 mm 0.00 in0.0 mm 0.00 in0.0 mm
01:30 PM 35.8°F2.1°C 14.3°F-9.8°C 41% 5.6 mph SE9.0 kmh SE 8.7 mph14.0 kmh 30.01 in1016.3 mb 0.00 in0.0 mm 0.00 in0.0 mm 0.00 in0.0 mm
01:45 PM 35.6°F2.0°C 13.6°F-10.2°C 40% 5.6 mph SE9.0 kmh SE 9.6 mph15.4 kmh 30.01 in1016.3 mb 0.00 in0.0 mm 0.00 in0.0 mm 0.00 in0.0 mm
02:00 PM 35.6°F2.0°C 13.6°F-10.2°C 40% 5.6 mph SE9.0 kmh SE 10.7 mph17.2 kmh 30.01 in1016.3 mb 0.00 in0.0 mm 0.00 in0.0 mm 0.00 in0.0 mm
02:15 PM 35.4°F1.9°C 13.5°F-10.3°C 40% 4.9 mph SE7.9 kmh SE 12.1 mph19.5 kmh 30.01 in1016.3 mb 0.00 in0.0 mm 0.00 in0.0 mm 0.00 in0.0 mm
02:30 PM 35.2°F1.8°C 13.3°F-10.4°C 40% 4.6 mph SE7.4 kmh SE 6.9 mph11.1 kmh 30.01 in1016.3 mb 0.00 in0.0 mm 0.00 in0.0 mm 0.00 in0.0 mm
02:45 PM 35.1°F1.7°C 13.1°F-10.5°C 40% 5.3 mph SE8.5 kmh SE 10.7 mph17.2 kmh 29.98 in1015.2 mb 0.00 in0.0 mm 0.00 in0.0 mm 0.00 in0.0 mm
03:00 PM 34.9°F1.6°C 13.5°F-10.3°C 41% 5.3 mph SE8.5 kmh SE 9.4 mph15.1 kmh 29.98 in1015.2 mb 0.00 in0.0 mm 0.00 in0.0 mm 0.00 in0.0 mm
03:15 PM 34.7°F1.5°C 13.9°F-10.1°C 42% 3.4 mph SE5.5 kmh SE 7.6 mph12.2 kmh 29.98 in1015.2 mb 0.00 in0.0 mm 0.00 in0.0 mm 0.00 in0.0 mm
03:30 PM 34.2°F1.2°C 14.0°F-10.0°C 43% 3.7 mph SE6.0 kmh SE 7.8 mph12.6 kmh 29.98 in1015.2 mb 0.00 in0.0 mm 0.00 in0.0 mm 0.00 in0.0 mm
03:45 PM 33.8°F1.0°C 13.6°F-10.2°C 43% 3.9 mph SE6.3 kmh SE 6.5 mph10.5 kmh 29.95 in1014.2 mb 0.00 in0.0 mm 0.00 in0.0 mm 0.00 in0.0 mm
04:00 PM 33.4°F0.8°C 13.8°F-10.1°C 44% 4.7 mph SE7.6 kmh SE 9.6 mph15.4 kmh 29.98 in1015.2 mb 0.00 in0.0 mm 0.00 in0.0 mm 0.00 in0.0 mm
04:15 PM 32.9°F0.5°C 13.9°F-10.1°C 45% 3.6 mph ESE5.8 kmh ESE 6.3 mph10.1 kmh 29.95 in1014.2 mb 0.00 in0.0 mm 0.00 in0.0 mm 0.00 in0.0 mm
04:30 PM 32.5°F0.3°C 14.5°F-9.7°C 47% 3.8 mph ESE6.1 kmh ESE 7.8 mph12.6 kmh 29.95 in1014.2 mb 0.00 in0.0 mm 0.00 in0.0 mm 0.00 in0.0 mm
04:45 PM 32.4°F0.2°C 14.8°F-9.6°C 48% 4.1 mph ESE6.6 kmh ESE 6.5 mph10.5 kmh 29.95 in1014.2 mb 0.00 in0.0 mm 0.00 in0.0 mm 0.00 in0.0 mm
05:00 PM 31.8°F-0.1°C 14.8°F-9.6°C 49% 4.3 mph E6.9 kmh E 7.2 mph11.6 kmh 29.95 in1014.2 mb 0.00 in0.0 mm 0.00 in0.0 mm 0.00 in0.0 mm
05:15 PM 30.9°F-0.6°C 14.0°F-10.0°C 49% 3.2 mph E5.1 kmh E 5.8 mph9.3 kmh 29.95 in1014.2 mb 0.00 in0.0 mm 0.00 in0.0 mm 0.00 in0.0 mm
05:30 PM 30.4°F-0.9°C 14.4°F-9.8°C 51% 3.3 mph E5.3 kmh E 5.8 mph9.3 kmh 29.95 in1014.2 mb 0.00 in0.0 mm 0.00 in0.0 mm 0.00 in0.0 mm
05:45 PM 30.2°F-1.0°C 14.7°F-9.6°C 52% 3.5 mph E5.6 kmh E 5.6 mph9.0 kmh 29.95 in1014.2 mb 0.00 in0.0 mm 0.00 in0.0 mm 0.00 in0.0 mm
06:00 PM 29.7°F-1.3°C 14.6°F-9.7°C 53% 3.4 mph E5.5 kmh E 6.5 mph10.5 kmh 29.95 in1014.2 mb 0.00 in0.0 mm 0.00 in0.0 mm 0.00 in0.0 mm
06:15 PM 29.7°F-1.3°C 14.6°F-9.7°C 53% 3.8 mph E6.1 kmh E 7.4 mph11.9 kmh 29.95 in1014.2 mb 0.00 in0.0 mm 0.00 in0.0 mm 0.00 in0.0 mm
06:30 PM 29.3°F-1.5°C 14.7°F-9.6°C 54% 3.0 mph E4.8 kmh E 5.8 mph9.3 kmh 29.95 in1014.2 mb 0.00 in0.0 mm 0.00 in0.0 mm 0.00 in0.0 mm
06:45 PM 29.1°F-1.6°C 14.5°F-9.7°C 54% 3.7 mph E6.0 kmh E 7.2 mph11.6 kmh 29.92 in1013.2 mb 0.00 in0.0 mm 0.00 in0.0 mm 0.00 in0.0 mm
07:00 PM 29.1°F-1.6°C 14.5°F-9.7°C 54% 3.6 mph E5.8 kmh E 6.5 mph10.5 kmh 29.95 in1014.2 mb 0.00 in0.0 mm 0.00 in0.0 mm 0.00 in0.0 mm
07:15 PM 28.9°F-1.7°C 14.4°F-9.8°C 54% 3.2 mph E5.1 kmh E 5.6 mph9.0 kmh 29.95 in1014.2 mb 0.00 in0.0 mm 0.00 in0.0 mm 0.00 in0.0 mm
07:30 PM 28.6°F-1.9°C 14.0°F-10.0°C 54% 3.0 mph E4.8 kmh E 5.4 mph8.7 kmh 29.95 in1014.2 mb 0.00 in0.0 mm 0.00 in0.0 mm 0.00 in0.0 mm
07:45 PM 28.8°F-1.8°C 14.6°F-9.7°C 55% 3.7 mph E6.0 kmh E 6.3 mph10.1 kmh 29.95 in1014.2 mb 0.00 in0.0 mm 0.00 in0.0 mm 0.00 in0.0 mm
08:00 PM 28.8°F-1.8°C 14.6°F-9.7°C 55% 4.3 mph E6.9 kmh E 8.5 mph13.7 kmh 29.95 in1014.2 mb 0.00 in0.0 mm 0.00 in0.0 mm 0.00 in0.0 mm
08:15 PM 28.6°F-1.9°C 14.0°F-10.0°C 54% 4.2 mph E6.8 kmh E 6.3 mph10.1 kmh 29.95 in1014.2 mb 0.00 in0.0 mm 0.00 in0.0 mm 0.00 in0.0 mm
08:30 PM 28.4°F-2.0°C 13.9°F-10.1°C 54% 3.6 mph E5.8 kmh E 7.2 mph11.6 kmh 29.95 in1014.2 mb 0.00 in0.0 mm 0.00 in0.0 mm 0.00 in0.0 mm
08:45 PM 28.2°F-2.1°C 13.7°F-10.2°C 54% 3.5 mph ESE5.6 kmh ESE 7.2 mph11.6 kmh 29.95 in1014.2 mb 0.00 in0.0 mm 0.00 in0.0 mm 0.00 in0.0 mm
09:00 PM 28.0°F-2.2°C 13.5°F-10.3°C 54% 3.1 mph ESE5.0 kmh ESE 5.8 mph9.3 kmh 29.95 in1014.2 mb 0.00 in0.0 mm 0.00 in0.0 mm 0.00 in0.0 mm
09:15 PM 27.9°F-2.3°C 13.3°F-10.4°C 54% 3.2 mph E5.1 kmh E 6.0 mph9.7 kmh 29.95 in1014.2 mb 0.00 in0.0 mm 0.00 in0.0 mm 0.00 in0.0 mm
09:30 PM 27.7°F-2.4°C 13.6°F-10.2°C 55% 3.2 mph E5.1 kmh E 5.4 mph8.7 kmh 29.95 in1014.2 mb 0.00 in0.0 mm 0.00 in0.0 mm 0.00 in0.0 mm
09:45 PM 27.5°F-2.5°C 13.4°F-10.3°C 55% 3.7 mph E6.0 kmh E 7.2 mph11.6 kmh 29.95 in1014.2 mb 0.00 in0.0 mm 0.00 in0.0 mm 0.00 in0.0 mm
10:00 PM 27.5°F-2.5°C 13.4°F-10.3°C 55% 3.7 mph E6.0 kmh E 5.8 mph9.3 kmh 29.95 in1014.2 mb 0.00 in0.0 mm 0.00 in0.0 mm 0.00 in0.0 mm
10:15 PM 27.3°F-2.6°C 13.3°F-10.4°C 55% 3.5 mph E5.6 kmh E 5.8 mph9.3 kmh 29.95 in1014.2 mb 0.00 in0.0 mm 0.00 in0.0 mm 0.00 in0.0 mm
10:30 PM 27.0°F-2.8°C 12.9°F-10.6°C 55% 2.7 mph ESE4.3 kmh ESE 4.9 mph7.9 kmh 29.98 in1015.2 mb 0.00 in0.0 mm 0.00 in0.0 mm 0.00 in0.0 mm
10:45 PM 26.8°F-2.9°C 12.8°F-10.7°C 55% 3.3 mph ESE5.3 kmh ESE 6.0 mph9.7 kmh 29.95 in1014.2 mb 0.00 in0.0 mm 0.00 in0.0 mm 0.00 in0.0 mm
11:00 PM 26.6°F-3.0°C 13.0°F-10.6°C 56% 3.4 mph ESE5.5 kmh ESE 5.4 mph8.7 kmh 29.98 in1015.2 mb 0.00 in0.0 mm 0.00 in0.0 mm 0.00 in0.0 mm
11:15 PM 26.2°F-3.2°C 12.7°F-10.7°C 56% 4.0 mph E6.4 kmh E 6.3 mph10.1 kmh 29.98 in1015.2 mb 0.00 in0.0 mm 0.00 in0.0 mm 0.00 in0.0 mm
11:30 PM 26.2°F-3.2°C 12.7°F-10.7°C 56% 3.0 mph ESE4.8 kmh ESE 5.8 mph9.3 kmh 29.98 in1015.2 mb 0.00 in0.0 mm 0.00 in0.0 mm 0.00 in0.0 mm
11:45 PM 26.1°F-3.3°C 12.9°F-10.6°C 57% 3.5 mph ESE5.6 kmh ESE 5.8 mph9.3 kmh 29.98 in1015.2 mb 0.00 in0.0 mm 0.00 in0.0 mm 0.00 in0.0 mm